sensor_id;sensor_type;location;lat;lon;timestamp;temperature;humidity
3842;DHT22;1936;47.074;15.336;2023-08-06T00:00:22;17.00;98.70
3842;DHT22;1936;47.074;15.336;2023-08-06T00:02:26;17.00;98.80
3842;DHT22;1936;47.074;15.336;2023-08-06T00:04:29;17.00;98.80
3842;DHT22;1936;47.074;15.336;2023-08-06T00:06:33;17.00;98.80
3842;DHT22;1936;47.074;15.336;2023-08-06T00:08:36;16.70;99.50
3842;DHT22;1936;47.074;15.336;2023-08-06T00:10:40;16.90;99.70
3842;DHT22;1936;47.074;15.336;2023-08-06T00:12:42;16.90;99.20
3842;DHT22;1936;47.074;15.336;2023-08-06T00:14:50;16.90;98.90
3842;DHT22;1936;47.074;15.336;2023-08-06T00:16:53;16.80;99.10
3842;DHT22;1936;47.074;15.336;2023-08-06T00:18:57;16.80;99.20
3842;DHT22;1936;47.074;15.336;2023-08-06T00:21:00;16.70;99.40
3842;DHT22;1936;47.074;15.336;2023-08-06T00:23:04;16.60;99.90
3842;DHT22;1936;47.074;15.336;2023-08-06T00:25:08;16.60;99.90
3842;DHT22;1936;47.074;15.336;2023-08-06T00:27:11;16.70;99.90
3842;DHT22;1936;47.074;15.336;2023-08-06T00:29:16;16.70;99.80
3842;DHT22;1936;47.074;15.336;2023-08-06T00:31:21;16.80;99.40
3842;DHT22;1936;47.074;15.336;2023-08-06T00:33:24;16.90;99.30
3842;DHT22;1936;47.074;15.336;2023-08-06T00:35:27;16.90;99.20
3842;DHT22;1936;47.074;15.336;2023-08-06T00:37:30;16.80;99.30
3842;DHT22;1936;47.074;15.336;2023-08-06T00:39:34;17.00;99.00
3842;DHT22;1936;47.074;15.336;2023-08-06T00:41:37;17.00;98.80
3842;DHT22;1936;47.074;15.336;2023-08-06T00:43:41;16.80;98.90
3842;DHT22;1936;47.074;15.336;2023-08-06T00:45:44;16.90;99.10
3842;DHT22;1936;47.074;15.336;2023-08-06T00:47:49;16.90;99.00
3842;DHT22;1936;47.074;15.336;2023-08-06T00:49:52;16.90;98.90
3842;DHT22;1936;47.074;15.336;2023-08-06T00:51:56;17.00;98.80
3842;DHT22;1936;47.074;15.336;2023-08-06T00:54:01;17.00;98.80
3842;DHT22;1936;47.074;15.336;2023-08-06T00:56:04;17.00;98.80
3842;DHT22;1936;47.074;15.336;2023-08-06T00:58:08;17.10;98.40
3842;DHT22;1936;47.074;15.336;2023-08-06T01:00:12;17.10;98.40
3842;DHT22;1936;47.074;15.336;2023-08-06T01:02:16;16.90;98.60
3842;DHT22;1936;47.074;15.336;2023-08-06T01:04:21;16.80;99.10
3842;DHT22;1936;47.074;15.336;2023-08-06T01:06:35;16.90;99.30
3842;DHT22;1936;47.074;15.336;2023-08-06T01:08:48;17.10;98.80
3842;DHT22;1936;47.074;15.336;2023-08-06T01:11:01;17.00;98.80
3842;DHT22;1936;47.074;15.336;2023-08-06T01:13:15;16.90;98.70
3842;DHT22;1936;47.074;15.336;2023-08-06T01:15:22;16.90;98.90
3842;DHT22;1936;47.074;15.336;2023-08-06T01:17:26;16.90;98.70
3842;DHT22;1936;47.074;15.336;2023-08-06T01:19:32;17.00;98.60
3842;DHT22;1936;47.074;15.336;2023-08-06T01:21:37;16.90;98.60
3842;DHT22;1936;47.074;15.336;2023-08-06T01:23:40;17.00;98.80
3842;DHT22;1936;47.074;15.336;2023-08-06T01:25:48;17.10;98.40
3842;DHT22;1936;47.074;15.336;2023-08-06T01:27:55;17.10;98.10
3842;DHT22;1936;47.074;15.336;2023-08-06T01:30:06;16.90;98.30
3842;DHT22;1936;47.074;15.336;2023-08-06T01:32:12;16.80;99.00
3842;DHT22;1936;47.074;15.336;2023-08-06T01:34:21;16.80;99.10
3842;DHT22;1936;47.074;15.336;2023-08-06T01:36:25;16.90;98.90
3842;DHT22;1936;47.074;15.336;2023-08-06T01:38:30;16.90;98.70
3842;DHT22;1936;47.074;15.336;2023-08-06T01:40:33;16.90;98.60
3842;DHT22;1936;47.074;15.336;2023-08-06T01:42:37;16.80;98.80
3842;DHT22;1936;47.074;15.336;2023-08-06T01:44:40;16.80;98.90
3842;DHT22;1936;47.074;15.336;2023-08-06T01:46:44;16.60;99.20
3842;DHT22;1936;47.074;15.336;2023-08-06T01:48:47;16.70;99.10
3842;DHT22;1936;47.074;15.336;2023-08-06T01:50:51;16.70;99.00
3842;DHT22;1936;47.074;15.336;2023-08-06T01:52:54;16.70;98.80
3842;DHT22;1936;47.074;15.336;2023-08-06T01:54:59;16.70;98.90
3842;DHT22;1936;47.074;15.336;2023-08-06T01:57:03;16.80;98.80
3842;DHT22;1936;47.074;15.336;2023-08-06T01:59:05;16.80;98.70
3842;DHT22;1936;47.074;15.336;2023-08-06T02:01:09;16.80;98.60
3842;DHT22;1936;47.074;15.336;2023-08-06T02:03:12;16.90;98.30
3842;DHT22;1936;47.074;15.336;2023-08-06T02:05:16;16.80;98.50
3842;DHT22;1936;47.074;15.336;2023-08-06T02:07:19;16.70;99.10
3842;DHT22;1936;47.074;15.336;2023-08-06T02:09:23;16.70;98.90
3842;DHT22;1936;47.074;15.336;2023-08-06T02:11:28;16.80;98.60
3842;DHT22;1936;47.074;15.336;2023-08-06T02:13:31;16.80;98.70
3842;DHT22;1936;47.074;15.336;2023-08-06T02:15:35;16.80;98.60
3842;DHT22;1936;47.074;15.336;2023-08-06T02:17:38;16.80;98.50
3842;DHT22;1936;47.074;15.336;2023-08-06T02:19:41;16.80;98.50
3842;DHT22;1936;47.074;15.336;2023-08-06T02:21:46;16.70;98.70
3842;DHT22;1936;47.074;15.336;2023-08-06T02:23:49;16.70;98.70
3842;DHT22;1936;47.074;15.336;2023-08-06T02:25:59;16.70;98.60
3842;DHT22;1936;47.074;15.336;2023-08-06T02:28:04;16.80;98.60
3842;DHT22;1936;47.074;15.336;2023-08-06T02:30:08;16.80;98.50
3842;DHT22;1936;47.074;15.336;2023-08-06T02:32:11;16.60;98.90
3842;DHT22;1936;47.074;15.336;2023-08-06T02:34:15;16.70;98.80
3842;DHT22;1936;47.074;15.336;2023-08-06T02:36:19;16.70;98.60
3842;DHT22;1936;47.074;15.336;2023-08-06T02:38:22;16.60;98.60
3842;DHT22;1936;47.074;15.336;2023-08-06T02:40:25;16.70;98.70
3842;DHT22;1936;47.074;15.336;2023-08-06T02:42:28;16.60;98.80
3842;DHT22;1936;47.074;15.336;2023-08-06T02:44:33;16.60;98.50
3842;DHT22;1936;47.074;15.336;2023-08-06T02:46:36;16.70;98.60
3842;DHT22;1936;47.074;15.336;2023-08-06T02:48:40;16.60;98.60
3842;DHT22;1936;47.074;15.336;2023-08-06T02:50:43;16.60;98.60
3842;DHT22;1936;47.074;15.336;2023-08-06T02:52:47;16.50;98.90
3842;DHT22;1936;47.074;15.336;2023-08-06T02:54:50;16.30;99.40
3842;DHT22;1936;47.074;15.336;2023-08-06T02:56:54;16.30;99.80
3842;DHT22;1936;47.074;15.336;2023-08-06T02:58:57;16.50;99.40
3842;DHT22;1936;47.074;15.336;2023-08-06T03:01:04;16.50;99.20
3842;DHT22;1936;47.074;15.336;2023-08-06T03:03:09;16.50;99.10
3842;DHT22;1936;47.074;15.336;2023-08-06T03:05:11;16.60;98.90
3842;DHT22;1936;47.074;15.336;2023-08-06T03:07:15;16.50;98.90
3842;DHT22;1936;47.074;15.336;2023-08-06T03:09:18;16.50;98.90
3842;DHT22;1936;47.074;15.336;2023-08-06T03:11:22;16.30;99.30
3842;DHT22;1936;47.074;15.336;2023-08-06T03:13:26;16.00;99.90
3842;DHT22;1936;47.074;15.336;2023-08-06T03:15:30;16.20;99.90
3842;DHT22;1936;47.074;15.336;2023-08-06T03:17:34;16.10;99.90
3842;DHT22;1936;47.074;15.336;2023-08-06T03:19:38;16.30;99.80
3842;DHT22;1936;47.074;15.336;2023-08-06T03:21:43;16.40;99.60
3842;DHT22;1936;47.074;15.336;2023-08-06T03:23:47;16.50;99.20
3842;DHT22;1936;47.074;15.336;2023-08-06T03:25:51;16.50;99.00
3842;DHT22;1936;47.074;15.336;2023-08-06T03:27:54;16.40;99.40
3842;DHT22;1936;47.074;15.336;2023-08-06T03:29:56;16.40;99.40
3842;DHT22;1936;47.074;15.336;2023-08-06T03:32:00;16.50;99.10
3842;DHT22;1936;47.074;15.336;2023-08-06T03:34:05;16.50;98.90
3842;DHT22;1936;47.074;15.336;2023-08-06T03:36:08;16.40;99.30
3842;DHT22;1936;47.074;15.336;2023-08-06T03:38:12;16.30;99.60
3842;DHT22;1936;47.074;15.336;2023-08-06T03:40:15;16.50;99.20
3842;DHT22;1936;47.074;15.336;2023-08-06T03:42:18;16.60;98.70
3842;DHT22;1936;47.074;15.336;2023-08-06T03:44:22;16.50;98.70
3842;DHT22;1936;47.074;15.336;2023-08-06T03:46:24;16.50;98.80
3842;DHT22;1936;47.074;15.336;2023-08-06T03:48:28;16.70;98.40
3842;DHT22;1936;47.074;15.336;2023-08-06T03:50:33;16.50;98.50
3842;DHT22;1936;47.074;15.336;2023-08-06T03:52:36;16.20;99.30
3842;DHT22;1936;47.074;15.336;2023-08-06T03:54:39;16.40;99.30
3842;DHT22;1936;47.074;15.336;2023-08-06T03:56:45;16.30;99.20
3842;DHT22;1936;47.074;15.336;2023-08-06T03:58:48;16.40;99.30
3842;DHT22;1936;47.074;15.336;2023-08-06T04:00:58;16.50;99.00
3842;DHT22;1936;47.074;15.336;2023-08-06T04:03:02;16.50;99.00
3842;DHT22;1936;47.074;15.336;2023-08-06T04:05:06;16.50;98.80
3842;DHT22;1936;47.074;15.336;2023-08-06T04:07:10;16.40;98.80
3842;DHT22;1936;47.074;15.336;2023-08-06T04:09:14;16.50;98.90
3842;DHT22;1936;47.074;15.336;2023-08-06T04:11:17;16.50;98.80
3842;DHT22;1936;47.074;15.336;2023-08-06T04:13:21;16.30;99.10
3842;DHT22;1936;47.074;15.336;2023-08-06T04:15:24;16.40;99.20
3842;DHT22;1936;47.074;15.336;2023-08-06T04:17:28;16.40;99.30
3842;DHT22;1936;47.074;15.336;2023-08-06T04:19:31;16.50;98.90
3842;DHT22;1936;47.074;15.336;2023-08-06T04:21:34;16.50;98.70
3842;DHT22;1936;47.074;15.336;2023-08-06T04:23:39;16.30;99.20
3842;DHT22;1936;47.074;15.336;2023-08-06T04:25:41;16.50;99.30
3842;DHT22;1936;47.074;15.336;2023-08-06T04:27:45;16.50;98.90
3842;DHT22;1936;47.074;15.336;2023-08-06T04:29:48;16.40;99.30
3842;DHT22;1936;47.074;15.336;2023-08-06T04:31:51;16.50;99.20
3842;DHT22;1936;47.074;15.336;2023-08-06T04:33:55;16.50;98.70
3842;DHT22;1936;47.074;15.336;2023-08-06T04:35:59;16.40;99.10
3842;DHT22;1936;47.074;15.336;2023-08-06T04:38:03;16.50;99.30
3842;DHT22;1936;47.074;15.336;2023-08-06T04:40:09;16.40;99.10
3842;DHT22;1936;47.074;15.336;2023-08-06T04:42:12;16.30;99.60
3842;DHT22;1936;47.074;15.336;2023-08-06T04:44:16;16.60;98.90
3842;DHT22;1936;47.074;15.336;2023-08-06T04:46:19;16.40;98.90
3842;DHT22;1936;47.074;15.336;2023-08-06T04:48:22;16.30;99.90
3842;DHT22;1936;47.074;15.336;2023-08-06T04:50:26;16.30;99.80
3842;DHT22;1936;47.074;15.336;2023-08-06T04:52:29;16.20;99.70
3842;DHT22;1936;47.074;15.336;2023-08-06T04:54:34;16.40;99.80
3842;DHT22;1936;47.074;15.336;2023-08-06T04:56:39;16.50;99.10
3842;DHT22;1936;47.074;15.336;2023-08-06T04:58:41;16.50;99.10
3842;DHT22;1936;47.074;15.336;2023-08-06T05:00:44;16.60;99.20
3842;DHT22;1936;47.074;15.336;2023-08-06T05:02:48;16.60;99.10
3842;DHT22;1936;47.074;15.336;2023-08-06T05:04:50;16.50;99.10
3842;DHT22;1936;47.074;15.336;2023-08-06T05:06:54;16.60;99.20
3842;DHT22;1936;47.074;15.336;2023-08-06T05:08:57;16.80;98.70
3842;DHT22;1936;47.074;15.336;2023-08-06T05:11:01;16.70;98.80
3842;DHT22;1936;47.074;15.336;2023-08-06T05:13:05;16.70;98.90
3842;DHT22;1936;47.074;15.336;2023-08-06T05:15:09;16.80;98.70
3842;DHT22;1936;47.074;15.336;2023-08-06T05:17:12;16.70;98.70
3842;DHT22;1936;47.074;15.336;2023-08-06T05:19:16;16.70;98.80
3842;DHT22;1936;47.074;15.336;2023-08-06T05:21:20;16.80;98.50
3842;DHT22;1936;47.074;15.336;2023-08-06T05:23:23;16.80;98.50
3842;DHT22;1936;47.074;15.336;2023-08-06T05:25:27;16.80;98.50
3842;DHT22;1936;47.074;15.336;2023-08-06T05:27:30;16.60;99.00
3842;DHT22;1936;47.074;15.336;2023-08-06T05:29:35;16.90;98.70
3842;DHT22;1936;47.074;15.336;2023-08-06T05:31:39;16.90;98.50
3842;DHT22;1936;47.074;15.336;2023-08-06T05:33:42;16.80;98.60
3842;DHT22;1936;47.074;15.336;2023-08-06T05:35:45;16.80;98.60
3842;DHT22;1936;47.074;15.336;2023-08-06T05:37:50;16.90;98.50
3842;DHT22;1936;47.074;15.336;2023-08-06T05:39:53;17.00;98.30
3842;DHT22;1936;47.074;15.336;2023-08-06T05:41:57;16.90;98.30
3842;DHT22;1936;47.074;15.336;2023-08-06T05:44:00;17.10;98.60
3842;DHT22;1936;47.074;15.336;2023-08-06T05:46:07;17.20;98.60
3842;DHT22;1936;47.074;15.336;2023-08-06T05:48:10;17.30;98.10
3842;DHT22;1936;47.074;15.336;2023-08-06T05:50:14;17.40;97.90
3842;DHT22;1936;47.074;15.336;2023-08-06T05:52:18;17.40;97.90
3842;DHT22;1936;47.074;15.336;2023-08-06T05:54:22;17.50;97.80
3842;DHT22;1936;47.074;15.336;2023-08-06T05:56:25;17.70;97.90
3842;DHT22;1936;47.074;15.336;2023-08-06T05:58:29;17.70;97.40
3842;DHT22;1936;47.074;15.336;2023-08-06T06:00:32;17.70;97.50
3842;DHT22;1936;47.074;15.336;2023-08-06T06:02:38;17.80;97.60
3842;DHT22;1936;47.074;15.336;2023-08-06T06:04:42;17.80;97.10
3842;DHT22;1936;47.074;15.336;2023-08-06T06:06:45;17.70;97.20
3842;DHT22;1936;47.074;15.336;2023-08-06T06:08:48;17.70;97.80
3842;DHT22;1936;47.074;15.336;2023-08-06T06:10:52;17.90;97.50
3842;DHT22;1936;47.074;15.336;2023-08-06T06:12:55;18.00;97.30
3842;DHT22;1936;47.074;15.336;2023-08-06T06:14:58;18.20;97.00
3842;DHT22;1936;47.074;15.336;2023-08-06T06:17:03;18.30;96.70
3842;DHT22;1936;47.074;15.336;2023-08-06T06:19:08;17.90;96.50
3842;DHT22;1936;47.074;15.336;2023-08-06T06:21:12;18.10;96.80
3842;DHT22;1936;47.074;15.336;2023-08-06T06:23:15;18.00;96.70
3842;DHT22;1936;47.074;15.336;2023-08-06T06:25:19;18.30;96.90
3842;DHT22;1936;47.074;15.336;2023-08-06T06:27:22;18.00;96.10
3842;DHT22;1936;47.074;15.336;2023-08-06T06:29:26;18.30;96.70
3842;DHT22;1936;47.074;15.336;2023-08-06T06:31:30;18.40;96.00
3842;DHT22;1936;47.074;15.336;2023-08-06T06:33:33;18.50;96.00
3842;DHT22;1936;47.074;15.336;2023-08-06T06:35:38;18.60;96.10
3842;DHT22;1936;47.074;15.336;2023-08-06T06:37:41;18.60;95.70
3842;DHT22;1936;47.074;15.336;2023-08-06T06:39:45;18.80;95.70
3842;DHT22;1936;47.074;15.336;2023-08-06T06:41:48;18.60;95.40
3842;DHT22;1936;47.074;15.336;2023-08-06T06:43:51;18.80;95.40
3842;DHT22;1936;47.074;15.336;2023-08-06T06:45:56;18.40;95.30
3842;DHT22;1936;47.074;15.336;2023-08-06T06:48:01;18.70;95.40
3842;DHT22;1936;47.074;15.336;2023-08-06T06:50:05;18.90;95.20
3842;DHT22;1936;47.074;15.336;2023-08-06T06:52:10;18.80;95.00
3842;DHT22;1936;47.074;15.336;2023-08-06T06:54:14;18.80;94.90
3842;DHT22;1936;47.074;15.336;2023-08-06T06:56:17;18.90;94.70
3842;DHT22;1936;47.074;15.336;2023-08-06T06:58:20;18.70;94.70
3842;DHT22;1936;47.074;15.336;2023-08-06T07:00:23;18.80;94.80
3842;DHT22;1936;47.074;15.336;2023-08-06T07:02:27;18.80;95.00
3842;DHT22;1936;47.074;15.336;2023-08-06T07:04:31;18.80;94.90
3842;DHT22;1936;47.074;15.336;2023-08-06T07:06:34;18.90;94.50
3842;DHT22;1936;47.074;15.336;2023-08-06T07:08:39;18.60;94.40
3842;DHT22;1936;47.074;15.336;2023-08-06T07:10:43;18.80;94.80
3842;DHT22;1936;47.074;15.336;2023-08-06T07:12:46;18.50;95.20
3842;DHT22;1936;47.074;15.336;2023-08-06T07:14:49;18.40;95.10
3842;DHT22;1936;47.074;15.336;2023-08-06T07:16:53;18.40;95.50
3842;DHT22;1936;47.074;15.336;2023-08-06T07:18:56;18.30;96.10
3842;DHT22;1936;47.074;15.336;2023-08-06T07:21:00;18.60;95.70
3842;DHT22;1936;47.074;15.336;2023-08-06T07:23:04;18.60;95.40
3842;DHT22;1936;47.074;15.336;2023-08-06T07:25:11;18.70;95.30
3842;DHT22;1936;47.074;15.336;2023-08-06T07:27:14;18.70;95.60
3842;DHT22;1936;47.074;15.336;2023-08-06T07:29:18;18.90;95.40
3842;DHT22;1936;47.074;15.336;2023-08-06T07:31:23;18.70;95.50
3842;DHT22;1936;47.074;15.336;2023-08-06T07:33:27;18.90;95.20
3842;DHT22;1936;47.074;15.336;2023-08-06T07:35:31;19.00;95.10
3842;DHT22;1936;47.074;15.336;2023-08-06T07:37:35;18.80;94.70
3842;DHT22;1936;47.074;15.336;2023-08-06T07:39:38;19.00;94.90
3842;DHT22;1936;47.074;15.336;2023-08-06T07:41:45;19.10;94.70
3842;DHT22;1936;47.074;15.336;2023-08-06T07:43:48;19.10;94.50
3842;DHT22;1936;47.074;15.336;2023-08-06T07:45:52;18.90;94.90
3842;DHT22;1936;47.074;15.336;2023-08-06T07:47:56;18.90;94.80
3842;DHT22;1936;47.074;15.336;2023-08-06T07:49:59;19.00;94.50
3842;DHT22;1936;47.074;15.336;2023-08-06T07:52:03;19.00;94.70
3842;DHT22;1936;47.074;15.336;2023-08-06T07:54:08;19.30;94.30
3842;DHT22;1936;47.074;15.336;2023-08-06T07:56:11;19.50;94.10
3842;DHT22;1936;47.074;15.336;2023-08-06T07:58:16;19.50;93.50
3842;DHT22;1936;47.074;15.336;2023-08-06T08:00:20;19.70;93.20
3842;DHT22;1936;47.074;15.336;2023-08-06T08:02:24;19.70;93.50
3842;DHT22;1936;47.074;15.336;2023-08-06T08:04:27;19.40;93.70
3842;DHT22;1936;47.074;15.336;2023-08-06T08:06:30;19.40;93.40
3842;DHT22;1936;47.074;15.336;2023-08-06T08:08:34;19.70;92.90
3842;DHT22;1936;47.074;15.336;2023-08-06T08:10:42;19.90;93.00
3842;DHT22;1936;47.074;15.336;2023-08-06T08:12:46;19.90;93.20
3842;DHT22;1936;47.074;15.336;2023-08-06T08:14:52;19.80;93.00
3842;DHT22;1936;47.074;15.336;2023-08-06T08:16:55;19.90;93.50
3842;DHT22;1936;47.074;15.336;2023-08-06T08:18:59;20.00;93.60
3842;DHT22;1936;47.074;15.336;2023-08-06T08:21:02;20.20;93.30
3842;DHT22;1936;47.074;15.336;2023-08-06T08:23:06;20.30;93.00
3842;DHT22;1936;47.074;15.336;2023-08-06T08:25:09;20.50;93.10
3842;DHT22;1936;47.074;15.336;2023-08-06T08:27:12;20.30;92.40
3842;DHT22;1936;47.074;15.336;2023-08-06T08:29:16;20.00;91.60
3842;DHT22;1936;47.074;15.336;2023-08-06T08:31:21;20.10;91.40
3842;DHT22;1936;47.074;15.336;2023-08-06T08:33:24;20.30;92.00
3842;DHT22;1936;47.074;15.336;2023-08-06T08:35:28;20.00;91.70
3842;DHT22;1936;47.074;15.336;2023-08-06T08:37:31;20.00;92.00
3842;DHT22;1936;47.074;15.336;2023-08-06T08:39:35;20.10;91.60
3842;DHT22;1936;47.074;15.336;2023-08-06T08:41:39;20.30;92.50
3842;DHT22;1936;47.074;15.336;2023-08-06T08:43:43;20.50;92.10
3842;DHT22;1936;47.074;15.336;2023-08-06T08:45:50;19.80;91.40
3842;DHT22;1936;47.074;15.336;2023-08-06T08:47:55;19.80;92.70
3842;DHT22;1936;47.074;15.336;2023-08-06T08:50:00;20.00;93.20
3842;DHT22;1936;47.074;15.336;2023-08-06T08:52:04;19.90;92.70
3842;DHT22;1936;47.074;15.336;2023-08-06T08:54:10;19.70;93.10
3842;DHT22;1936;47.074;15.336;2023-08-06T08:56:14;19.40;93.40
3842;DHT22;1936;47.074;15.336;2023-08-06T08:58:17;19.60;93.20
3842;DHT22;1936;47.074;15.336;2023-08-06T09:00:21;19.70;93.20
3842;DHT22;1936;47.074;15.336;2023-08-06T09:02:26;19.60;93.90
3842;DHT22;1936;47.074;15.336;2023-08-06T09:04:32;19.70;93.30
3842;DHT22;1936;47.074;15.336;2023-08-06T09:06:38;19.20;94.00
3842;DHT22;1936;47.074;15.336;2023-08-06T09:08:51;19.20;94.80
3842;DHT22;1936;47.074;15.336;2023-08-06T09:10:56;19.00;94.70
3842;DHT22;1936;47.074;15.336;2023-08-06T09:12:59;19.20;95.20
3842;DHT22;1936;47.074;15.336;2023-08-06T09:15:05;19.50;94.80
3842;DHT22;1936;47.074;15.336;2023-08-06T09:17:09;19.90;94.40
3842;DHT22;1936;47.074;15.336;2023-08-06T09:19:14;19.70;93.50
3842;DHT22;1936;47.074;15.336;2023-08-06T09:21:20;19.70;94.20
3842;DHT22;1936;47.074;15.336;2023-08-06T09:23:27;20.10;94.00
3842;DHT22;1936;47.074;15.336;2023-08-06T09:25:31;20.40;93.60
3842;DHT22;1936;47.074;15.336;2023-08-06T09:27:35;20.50;93.10
3842;DHT22;1936;47.074;15.336;2023-08-06T09:29:40;20.60;93.00
3842;DHT22;1936;47.074;15.336;2023-08-06T09:31:46;20.80;93.00
3842;DHT22;1936;47.074;15.336;2023-08-06T09:33:50;20.90;92.80
3842;DHT22;1936;47.074;15.336;2023-08-06T09:35:53;21.00;92.60
3842;DHT22;1936;47.074;15.336;2023-08-06T09:38:05;21.00;92.10
3842;DHT22;1936;47.074;15.336;2023-08-06T09:40:25;20.40;92.50
3842;DHT22;1936;47.074;15.336;2023-08-06T09:42:28;20.40;93.10
3842;DHT22;1936;47.074;15.336;2023-08-06T09:44:33;20.40;92.80
3842;DHT22;1936;47.074;15.336;2023-08-06T09:46:36;20.50;92.80
3842;DHT22;1936;47.074;15.336;2023-08-06T09:48:40;21.00;91.20
3842;DHT22;1936;47.074;15.336;2023-08-06T09:50:44;20.60;92.50
3842;DHT22;1936;47.074;15.336;2023-08-06T09:52:51;20.60;92.90
3842;DHT22;1936;47.074;15.336;2023-08-06T09:54:56;20.70;92.90
3842;DHT22;1936;47.074;15.336;2023-08-06T09:57:00;21.20;92.50
3842;DHT22;1936;47.074;15.336;2023-08-06T09:59:05;21.70;89.70
3842;DHT22;1936;47.074;15.336;2023-08-06T10:01:08;21.80;90.30
3842;DHT22;1936;47.074;15.336;2023-08-06T10:03:13;22.20;87.60
3842;DHT22;1936;47.074;15.336;2023-08-06T10:05:20;22.70;84.50
3842;DHT22;1936;47.074;15.336;2023-08-06T10:07:22;23.40;86.20
3842;DHT22;1936;47.074;15.336;2023-08-06T10:09:26;24.10;85.50
3842;DHT22;1936;47.074;15.336;2023-08-06T10:11:31;24.40;78.60
3842;DHT22;1936;47.074;15.336;2023-08-06T10:13:36;24.70;77.90
3842;DHT22;1936;47.074;15.336;2023-08-06T10:15:39;24.30;79.10
3842;DHT22;1936;47.074;15.336;2023-08-06T10:17:43;25.20;79.80
3842;DHT22;1936;47.074;15.336;2023-08-06T10:19:53;26.00;61.10
3842;DHT22;1936;47.074;15.336;2023-08-06T10:22:10;27.20;61.10
3842;DHT22;1936;47.074;15.336;2023-08-06T10:24:14;28.60;61.50
3842;DHT22;1936;47.074;15.336;2023-08-06T10:26:18;29.70;58.20
3842;DHT22;1936;47.074;15.336;2023-08-06T10:28:34;29.80;51.40
3842;DHT22;1936;47.074;15.336;2023-08-06T10:30:42;30.30;55.40
3842;DHT22;1936;47.074;15.336;2023-08-06T10:32:47;30.70;52.20
3842;DHT22;1936;47.074;15.336;2023-08-06T10:34:54;31.30;48.20
3842;DHT22;1936;47.074;15.336;2023-08-06T10:36:58;31.80;49.60
3842;DHT22;1936;47.074;15.336;2023-08-06T10:39:02;32.10;45.40
3842;DHT22;1936;47.074;15.336;2023-08-06T10:41:07;32.10;47.20
3842;DHT22;1936;47.074;15.336;2023-08-06T10:43:26;31.50;50.20
3842;DHT22;1936;47.074;15.336;2023-08-06T10:45:34;31.80;52.40
3842;DHT22;1936;47.074;15.336;2023-08-06T10:47:38;31.70;49.40
3842;DHT22;1936;47.074;15.336;2023-08-06T10:49:45;30.90;45.50
3842;DHT22;1936;47.074;15.336;2023-08-06T10:51:48;31.20;47.00
3842;DHT22;1936;47.074;15.336;2023-08-06T10:53:52;30.50;52.60
3842;DHT22;1936;47.074;15.336;2023-08-06T10:55:56;29.70;56.80
3842;DHT22;1936;47.074;15.336;2023-08-06T10:57:59;29.50;55.90
3842;DHT22;1936;47.074;15.336;2023-08-06T11:00:07;29.00;54.30
3842;DHT22;1936;47.074;15.336;2023-08-06T11:02:18;29.10;57.90
3842;DHT22;1936;47.074;15.336;2023-08-06T11:04:22;29.20;55.50
3842;DHT22;1936;47.074;15.336;2023-08-06T11:06:26;29.30;56.70
3842;DHT22;1936;47.074;15.336;2023-08-06T11:08:34;29.40;57.30
3842;DHT22;1936;47.074;15.336;2023-08-06T11:10:36;28.50;57.70
3842;DHT22;1936;47.074;15.336;2023-08-06T11:12:48;27.80;57.60
3842;DHT22;1936;47.074;15.336;2023-08-06T11:14:52;28.30;51.70
3842;DHT22;1936;47.074;15.336;2023-08-06T11:16:56;28.10;48.90
3842;DHT22;1936;47.074;15.336;2023-08-06T11:19:00;28.00;57.70
3842;DHT22;1936;47.074;15.336;2023-08-06T11:21:03;28.30;59.50
3842;DHT22;1936;47.074;15.336;2023-08-06T11:23:06;29.20;58.50
3842;DHT22;1936;47.074;15.336;2023-08-06T11:25:12;29.20;52.00
3842;DHT22;1936;47.074;15.336;2023-08-06T11:27:17;29.60;48.00
3842;DHT22;1936;47.074;15.336;2023-08-06T11:29:20;29.70;52.20
3842;DHT22;1936;47.074;15.336;2023-08-06T11:31:25;27.40;51.10
3842;DHT22;1936;47.074;15.336;2023-08-06T11:33:30;27.90;54.90
3842;DHT22;1936;47.074;15.336;2023-08-06T11:35:34;28.20;56.80
3842;DHT22;1936;47.074;15.336;2023-08-06T11:37:40;29.50;54.10
3842;DHT22;1936;47.074;15.336;2023-08-06T11:39:47;30.70;50.40
3842;DHT22;1936;47.074;15.336;2023-08-06T11:41:51;30.40;45.00
3842;DHT22;1936;47.074;15.336;2023-08-06T11:43:55;31.30;45.10
3842;DHT22;1936;47.074;15.336;2023-08-06T11:45:58;31.50;39.00
3842;DHT22;1936;47.074;15.336;2023-08-06T11:48:02;31.30;43.30
3842;DHT22;1936;47.074;15.336;2023-08-06T11:50:09;31.70;50.10
3842;DHT22;1936;47.074;15.336;2023-08-06T11:52:17;32.10;41.40
3842;DHT22;1936;47.074;15.336;2023-08-06T11:54:31;32.50;46.00
3842;DHT22;1936;47.074;15.336;2023-08-06T11:56:36;33.10;38.70
3842;DHT22;1936;47.074;15.336;2023-08-06T11:58:41;32.60;34.90
3842;DHT22;1936;47.074;15.336;2023-08-06T12:00:44;31.90;36.90
3842;DHT22;1936;47.074;15.336;2023-08-06T12:02:49;31.80;37.30
3842;DHT22;1936;47.074;15.336;2023-08-06T12:05:04;31.80;43.90
3842;DHT22;1936;47.074;15.336;2023-08-06T12:07:09;31.50;46.60
3842;DHT22;1936;47.074;15.336;2023-08-06T12:09:12;31.30;38.30
3842;DHT22;1936;47.074;15.336;2023-08-06T12:11:21;30.60;45.30
3842;DHT22;1936;47.074;15.336;2023-08-06T12:13:24;29.90;47.70
3842;DHT22;1936;47.074;15.336;2023-08-06T12:15:28;29.40;52.10
3842;DHT22;1936;47.074;15.336;2023-08-06T12:17:34;29.20;49.90
3842;DHT22;1936;47.074;15.336;2023-08-06T12:19:38;26.70;55.20
3842;DHT22;1936;47.074;15.336;2023-08-06T12:21:42;26.10;59.70
3842;DHT22;1936;47.074;15.336;2023-08-06T12:23:47;26.20;57.50
3842;DHT22;1936;47.074;15.336;2023-08-06T12:25:50;25.00;53.50
3842;DHT22;1936;47.074;15.336;2023-08-06T12:27:53;24.80;59.10
3842;DHT22;1936;47.074;15.336;2023-08-06T12:29:57;25.30;64.60
3842;DHT22;1936;47.074;15.336;2023-08-06T12:32:01;25.90;62.50
3842;DHT22;1936;47.074;15.336;2023-08-06T12:34:03;25.40;62.60
3842;DHT22;1936;47.074;15.336;2023-08-06T12:36:07;25.00;64.80
3842;DHT22;1936;47.074;15.336;2023-08-06T12:38:10;24.50;66.90
3842;DHT22;1936;47.074;15.336;2023-08-06T12:40:15;25.30;67.00
3842;DHT22;1936;47.074;15.336;2023-08-06T12:42:37;24.70;66.70
3842;DHT22;1936;47.074;15.336;2023-08-06T12:44:41;24.80;66.90
3842;DHT22;1936;47.074;15.336;2023-08-06T12:46:44;25.20;67.10
3842;DHT22;1936;47.074;15.336;2023-08-06T12:48:48;25.30;66.70
3842;DHT22;1936;47.074;15.336;2023-08-06T12:50:52;25.30;66.50
3842;DHT22;1936;47.074;15.336;2023-08-06T12:52:56;25.30;65.90
3842;DHT22;1936;47.074;15.336;2023-08-06T12:54:59;25.30;66.20
3842;DHT22;1936;47.074;15.336;2023-08-06T12:57:05;25.50;66.20
3842;DHT22;1936;47.074;15.336;2023-08-06T12:59:09;25.80;62.60
3842;DHT22;1936;47.074;15.336;2023-08-06T13:01:12;26.30;63.60
3842;DHT22;1936;47.074;15.336;2023-08-06T13:03:16;26.60;55.90
3842;DHT22;1936;47.074;15.336;2023-08-06T13:05:20;26.70;50.60
3842;DHT22;1936;47.074;15.336;2023-08-06T13:07:23;26.80;60.50
3842;DHT22;1936;47.074;15.336;2023-08-06T13:09:27;26.80;47.90
3842;DHT22;1936;47.074;15.336;2023-08-06T13:11:34;27.00;53.50
3842;DHT22;1936;47.074;15.336;2023-08-06T13:13:39;27.40;48.50
3842;DHT22;1936;47.074;15.336;2023-08-06T13:15:42;27.60;50.00
3842;DHT22;1936;47.074;15.336;2023-08-06T13:17:46;27.30;46.80